sensor_id;sensor_type;location;lat;lon;timestamp;pressure;altitude;pressure_sealevel;temperature;humidity
55858;BME280;41779;52.360;31.026;2022-12-19T00:05:01;1047.1;;;-2.1;61.6
55858;BME280;41779;52.360;31.026;2022-12-19T00:09:27;1047.1;;;-2.2;61.9
55858;BME280;41779;52.360;31.026;2022-12-19T00:14:59;1047.1;;;-2.2;62.1
55858;BME280;41779;52.360;31.026;2022-12-19T00:19:37;1047.1;;;-2.2;62.4
55858;BME280;41779;52.360;31.026;2022-12-19T00:24:37;1047.1;;;-2.1;62.3
55858;BME280;41779;52.360;31.026;2022-12-19T00:29:37;1047.2;;;-2;61.8
55858;BME280;41779;52.360;31.026;2022-12-19T00:34:27;1047.2;;;-2;61.9
55858;BME280;41779;52.360;31.026;2022-12-19T00:39:37;1047.2;;;-2;61.8
55858;BME280;41779;52.360;31.026;2022-12-19T00:45:03;1047.3;;;-2;61.4
55858;BME280;41779;52.360;31.026;2022-12-19T00:49:51;1047.4;;;-2;61.1
55858;BME280;41779;52.360;31.026;2022-12-19T00:54:37;1047.4;;;-2.1;60.8
55858;BME280;41779;52.360;31.026;2022-12-19T00:59:37;1047.6;;;-2.3;60.7
55858;BME280;41779;52.360;31.026;2022-12-19T01:04:27;1047.6;;;-2.3;60.6
55858;BME280;41779;52.360;31.026;2022-12-19T01:09:37;1047.6;;;-2.4;60.5
55858;BME280;41779;52.360;31.026;2022-12-19T01:14:47;1047.6;;;-2.4;60.4
55858;BME280;41779;52.360;31.026;2022-12-19T01:19:41;1047.6;;;-2.4;60.4
55858;BME280;41779;52.360;31.026;2022-12-19T01:24:31;1047.5;;;-2.5;60.3
55858;BME280;41779;52.360;31.026;2022-12-19T01:29:41;1047.6;;;-2.5;60.4
55858;BME280;41779;52.360;31.026;2022-12-19T01:34:31;1047.7;;;-2.6;60.4
55858;BME280;41779;52.360;31.026;2022-12-19T01:39:31;1047.7;;;-2.6;60.6
55858;BME280;41779;52.360;31.026;2022-12-19T01:44:32;1047.8;;;-2.7;60.7
55858;BME280;41779;52.360;31.026;2022-12-19T01:49:41;1047.8;;;-2.7;60.9
55858;BME280;41779;52.360;31.026;2022-12-19T01:54:31;1047.8;;;-2.6;61.2
55858;BME280;41779;52.360;31.026;2022-12-19T01:59:56;1047.7;;;-2.5;60.9
55858;BME280;41779;52.360;31.026;2022-12-19T02:04:41;1047.7;;;-2.4;60.7
55858;BME280;41779;52.360;31.026;2022-12-19T02:09:41;1047.7;;;-2.3;60.5
55858;BME280;41779;52.360;31.026;2022-12-19T02:14:32;1047.7;;;-2.2;60.3
55858;BME280;41779;52.360;31.026;2022-12-19T02:19:37;1047.7;;;-2.2;60.2
55858;BME280;41779;52.360;31.026;2022-12-19T02:24:39;1047.7;;;-2.2;60.2
55858;BME280;41779;52.360;31.026;2022-12-19T02:30:04;1047.7;;;-2.2;60.1
55858;BME280;41779;52.360;31.026;2022-12-19T02:34:47;1047.7;;;-2.3;60.2
55858;BME280;41779;52.360;31.026;2022-12-19T02:39:42;1047.8;;;-2.4;60.2
55858;BME280;41779;52.360;31.026;2022-12-19T02:44:43;1047.8;;;-2.4;60.5
55858;BME280;41779;52.360;31.026;2022-12-19T02:49:43;1047.8;;;-2.4;60.5
55858;BME280;41779;52.360;31.026;2022-12-19T02:54:39;1047.8;;;-2.4;60.3
55858;BME280;41779;52.360;31.026;2022-12-19T02:59:45;1047.9;;;-2.4;60.1
55858;BME280;41779;52.360;31.026;2022-12-19T03:04:41;1048;;;-2.4;60
55858;BME280;41779;52.360;31.026;2022-12-19T03:09:33;1048.1;;;-2.6;60.3
55858;BME280;41779;52.360;31.026;2022-12-19T03:14:31;1048.2;;;-2.6;60.5
55858;BME280;41779;52.360;31.026;2022-12-19T03:19:31;1048.2;;;-2.6;60.3
55858;BME280;41779;52.360;31.026;2022-12-19T03:24:31;1048.2;;;-2.6;60.4
55858;BME280;41779;52.360;31.026;2022-12-19T03:29:31;1048.2;;;-2.7;60.3
55858;BME280;41779;52.360;31.026;2022-12-19T03:34:31;1048.2;;;-2.7;60.2
55858;BME280;41779;52.360;31.026;2022-12-19T03:39:41;1048.2;;;-2.8;60.1
55858;BME280;41779;52.360;31.026;2022-12-19T03:44:41;1048.1;;;-2.8;60
55858;BME280;41779;52.360;31.026;2022-12-19T03:49:41;1048.1;;;-2.9;60.2
55858;BME280;41779;52.360;31.026;2022-12-19T03:55:08;1048.2;;;-2.9;59.9
55858;BME280;41779;52.360;31.026;2022-12-19T03:59:43;1048.3;;;-3;60.1
55858;BME280;41779;52.360;31.026;2022-12-19T04:04:32;1048.4;;;-3;59.9
55858;BME280;41779;52.360;31.026;2022-12-19T04:09:53;1048.4;;;-3.1;59.8
55858;BME280;41779;52.360;31.026;2022-12-19T04:14:32;1048.5;;;-3.2;59.8
55858;BME280;41779;52.360;31.026;2022-12-19T04:19:33;1048.5;;;-3.2;59.6
55858;BME280;41779;52.360;31.026;2022-12-19T04:24:41;1048.5;;;-3.2;59.2
55858;BME280;41779;52.360;31.026;2022-12-19T04:29:32;1048.7;;;-3.4;59
55858;BME280;41779;52.360;31.026;2022-12-19T04:34:41;1048.7;;;-3.5;58.7
55858;BME280;41779;52.360;31.026;2022-12-19T04:39:31;1048.8;;;-3.5;58.5
55858;BME280;41779;52.360;31.026;2022-12-19T04:44:51;1048.9;;;-3.6;58.4
55858;BME280;41779;52.360;31.026;2022-12-19T04:49:31;1048.8;;;-3.6;58.2
55858;BME280;41779;52.360;31.026;2022-12-19T04:54:55;1048.8;;;-3.7;58.3
55858;BME280;41779;52.360;31.026;2022-12-19T04:59:53;1048.9;;;-3.7;58.3
55858;BME280;41779;52.360;31.026;2022-12-19T05:04:31;1049;;;-3.8;58.3
55858;BME280;41779;52.360;31.026;2022-12-19T05:09:51;1049.1;;;-3.8;58.4
55858;BME280;41779;52.360;31.026;2022-12-19T05:14:31;1049.1;;;-3.8;58.3
55858;BME280;41779;52.360;31.026;2022-12-19T05:19:41;1049.1;;;-3.8;58.3
55858;BME280;41779;52.360;31.026;2022-12-19T05:24:31;1049.1;;;-3.9;58.1
55858;BME280;41779;52.360;31.026;2022-12-19T05:29:31;1049.1;;;-3.9;58
55858;BME280;41779;52.360;31.026;2022-12-19T05:34:31;1049.1;;;-4;57.9
55858;BME280;41779;52.360;31.026;2022-12-19T05:39:43;1049.2;;;-4;57.8
55858;BME280;41779;52.360;31.026;2022-12-19T05:44:31;1049.1;;;-4.1;57.7
55858;BME280;41779;52.360;31.026;2022-12-19T05:49:41;1049.2;;;-4;57.6
55858;BME280;41779;52.360;31.026;2022-12-19T05:54:55;1049.2;;;-4.1;57.7
55858;BME280;41779;52.360;31.026;2022-12-19T05:59:41;1049.2;;;-4.1;57.8
55858;BME280;41779;52.360;31.026;2022-12-19T06:04:41;1049.2;;;-4.2;57.9
55858;BME280;41779;52.360;31.026;2022-12-19T06:09:39;1049.4;;;-4.2;57.9
55858;BME280;41779;52.360;31.026;2022-12-19T06:14:31;1049.4;;;-4.3;58
55858;BME280;41779;52.360;31.026;2022-12-19T06:19:41;1049.4;;;-4.3;58
55858;BME280;41779;52.360;31.026;2022-12-19T06:24:31;1049.4;;;-4.3;57.7
55858;BME280;41779;52.360;31.026;2022-12-19T06:29:31;1049.5;;;-4.3;57.4
55858;BME280;41779;52.360;31.026;2022-12-19T06:34:41;1049.6;;;-4.4;57.4
55858;BME280;41779;52.360;31.026;2022-12-19T06:39:41;1049.6;;;-4.4;57.3
55858;BME280;41779;52.360;31.026;2022-12-19T06:44:54;1049.6;;;-4.4;57.2
55858;BME280;41779;52.360;31.026;2022-12-19T06:49:39;1049.6;;;-4.4;57.2
55858;BME280;41779;52.360;31.026;2022-12-19T06:54:31;1049.7;;;-4.4;57.3
55858;BME280;41779;52.360;31.026;2022-12-19T06:59:31;1049.8;;;-4.3;57.3
55858;BME280;41779;52.360;31.026;2022-12-19T07:04:32;1049.9;;;-4.2;57.2
55858;BME280;41779;52.360;31.026;2022-12-19T07:09:31;1049.9;;;-4.2;57.2
55858;BME280;41779;52.360;31.026;2022-12-19T07:14:39;1050;;;-4.1;57.1
55858;BME280;41779;52.360;31.026;2022-12-19T07:19:31;1050;;;-4.1;56.8
55858;BME280;41779;52.360;31.026;2022-12-19T07:24:39;1050.1;;;-4.1;56.7
55858;BME280;41779;52.360;31.026;2022-12-19T07:29:41;1050.1;;;-4.1;56.5
55858;BME280;41779;52.360;31.026;2022-12-19T07:34:31;1050.1;;;-4;56.4
55858;BME280;41779;52.360;31.026;2022-12-19T07:39:41;1050.1;;;-4;56.4
55858;BME280;41779;52.360;31.026;2022-12-19T07:44:31;1050.1;;;-3.9;56.2
55858;BME280;41779;52.360;31.026;2022-12-19T07:49:41;1050.1;;;-3.9;56.3
55858;BME280;41779;52.360;31.026;2022-12-19T07:54:31;1050.1;;;-3.8;56.4
55858;BME280;41779;52.360;31.026;2022-12-19T07:59:31;1050;;;-3.8;56.5
55858;BME280;41779;52.360;31.026;2022-12-19T08:04:47;1050;;;-3.8;56.7
55858;BME280;41779;52.360;31.026;2022-12-19T08:09:29;1050;;;-3.8;56.7
55858;BME280;41779;52.360;31.026;2022-12-19T08:14:41;1050.1;;;-3.9;56.9
55858;BME280;41779;52.360;31.026;2022-12-19T08:19:31;1050.2;;;-3.9;57
55858;BME280;41779;52.360;31.026;2022-12-19T08:24:45;1050.2;;;-3.9;57
55858;BME280;41779;52.360;31.026;2022-12-19T08:29:39;1050.1;;;-3.9;57.2
55858;BME280;41779;52.360;31.026;2022-12-19T08:34:31;1050.1;;;-3.9;57.4
55858;BME280;41779;52.360;31.026;2022-12-19T08:39:41;1050.1;;;-3.9;57.5
55858;BME280;41779;52.360;31.026;2022-12-19T08:44:31;1050.2;;;-3.8;57.6
55858;BME280;41779;52.360;31.026;2022-12-19T08:49:41;1050.2;;;-3.6;57.4
55858;BME280;41779;52.360;31.026;2022-12-19T08:54:49;1050.2;;;-3.5;57.2
55858;BME280;41779;52.360;31.026;2022-12-19T08:59:43;1050.2;;;-3.4;57.2
55858;BME280;41779;52.360;31.026;2022-12-19T09:04:49;1050;;;-3.4;57.3
55858;BME280;41779;52.360;31.026;2022-12-19T09:09:41;1050.1;;;-3.3;57.4
55858;BME280;41779;52.360;31.026;2022-12-19T09:14:54;1050.1;;;-3.1;57.2
55858;BME280;41779;52.360;31.026;2022-12-19T09:19:41;1050.1;;;-3;57.1
55858;BME280;41779;52.360;31.026;2022-12-19T09:24:45;1050.1;;;-2.9;56.8
55858;BME280;41779;52.360;31.026;2022-12-19T09:29:31;1050.1;;;-2.9;56.6
55858;BME280;41779;52.360;31.026;2022-12-19T09:34:31;1050.1;;;-2.9;56.5
55858;BME280;41779;52.360;31.026;2022-12-19T09:39:31;1050.2;;;-2.8;56.5
55858;BME280;41779;52.360;31.026;2022-12-19T09:44:36;1050.1;;;-2.8;56.3
55858;BME280;41779;52.360;31.026;2022-12-19T09:49:44;1049.9;;;-2.8;56.5
55858;BME280;41779;52.360;31.026;2022-12-19T09:54:32;1049.8;;;-2.8;56.6
55858;BME280;41779;52.360;31.026;2022-12-19T09:59:33;1049.8;;;-2.8;56.4
55858;BME280;41779;52.360;31.026;2022-12-19T10:04:32;1049.7;;;-2.8;56.7
55858;BME280;41779;52.360;31.026;2022-12-19T10:09:32;1049.6;;;-2.8;56.8
55858;BME280;41779;52.360;31.026;2022-12-19T10:14:34;1049.5;;;-2.8;56.7
55858;BME280;41779;52.360;31.026;2022-12-19T10:19:33;1049.4;;;-2.8;56.6
55858;BME280;41779;52.360;31.026;2022-12-19T10:24:58;1049.4;;;-2.9;56.6
55858;BME280;41779;52.360;31.026;2022-12-19T10:30:06;1049.3;;;-2.8;56.3
55858;BME280;41779;52.360;31.026;2022-12-19T10:34:49;1049.3;;;-2.9;56.3
55858;BME280;41779;52.360;31.026;2022-12-19T10:39:47;1049.3;;;-2.9;56.3
55858;BME280;41779;52.360;31.026;2022-12-19T10:44:39;1049.2;;;-3.1;56.7
55858;BME280;41779;52.360;31.026;2022-12-19T10:49:51;1049.2;;;-3.1;57.1
55858;BME280;41779;52.360;31.026;2022-12-19T10:55:09;1049.2;;;-3.1;57.2
55858;BME280;41779;52.360;31.026;2022-12-19T10:59:54;1049.3;;;-3.1;56.9
55858;BME280;41779;52.360;31.026;2022-12-19T11:04:41;1049.5;;;-3.1;56.6
55858;BME280;41779;52.360;31.026;2022-12-19T11:09:35;1049.4;;;-3.1;56.5
55858;BME280;41779;52.360;31.026;2022-12-19T11:14:32;1049.4;;;-3.1;56.6
55858;BME280;41779;52.360;31.026;2022-12-19T11:19:32;1049.3;;;-3;56.5
55858;BME280;41779;52.360;31.026;2022-12-19T11:24:42;1049.4;;;-3.1;56.5
55858;BME280;41779;52.360;31.026;2022-12-19T11:29:47;1049.3;;;-3.1;56.5
55858;BME280;41779;52.360;31.026;2022-12-19T11:34:39;1049.3;;;-3.1;56.3
55858;BME280;41779;52.360;31.026;2022-12-19T11:39:32;1049.3;;;-3;56.1
55858;BME280;41779;52.360;31.026;2022-12-19T11:44:46;1049.4;;;-3;56.1
55858;BME280;41779;52.360;31.026;2022-12-19T11:49:32;1049.5;;;-3;56.1
55858;BME280;41779;52.360;31.026;2022-12-19T11:54:53;1049.6;;;-3;56.2
55858;BME280;41779;52.360;31.026;2022-12-19T11:59:41;1049.6;;;-3;56.3
55858;BME280;41779;52.360;31.026;2022-12-19T12:04:44;1049.5;;;-3;56.4
55858;BME280;41779;52.360;31.026;2022-12-19T12:09:32;1049.5;;;-3;56.3
55858;BME280;41779;52.360;31.026;2022-12-19T12:15:00;1049.5;;;-3.1;56.4
55858;BME280;41779;52.360;31.026;2022-12-19T12:19:58;1049.4;;;-3.1;56.4
55858;BME280;41779;52.360;31.026;2022-12-19T12:24:35;1049.6;;;-3.1;56.4
55858;BME280;41779;52.360;31.026;2022-12-19T12:29:44;1049.6;;;-3;56.5
55858;BME280;41779;52.360;31.026;2022-12-19T12:34:46;1049.7;;;-2.9;56.4
55858;BME280;41779;52.360;31.026;2022-12-19T12:39:32;1049.7;;;-2.7;55.9
55858;BME280;41779;52.360;31.026;2022-12-19T12:44:40;1049.6;;;-2.7;55.6
55858;BME280;41779;52.360;31.026;2022-12-19T12:49:33;1049.5;;;-2.7;55.5
55858;BME280;41779;52.360;31.026;2022-12-19T12:54:43;1049.5;;;-2.8;55.6
55858;BME280;41779;52.360;31.026;2022-12-19T12:59:49;1049.5;;;-2.9;55.8
55858;BME280;41779;52.360;31.026;2022-12-19T13:04:54;1049.5;;;-2.9;56
55858;BME280;41779;52.360;31.026;2022-12-19T13:09:41;1049.5;;;-2.7;55.9
55858;BME280;41779;52.360;31.026;2022-12-19T13:14:40;1049.6;;;-2.7;55.7
55858;BME280;41779;52.360;31.026;2022-12-19T13:19:32;1049.6;;;-2.6;55.5
55858;BME280;41779;52.360;31.026;2022-12-19T13:24:36;1049.7;;;-2.6;55.5
55858;BME280;41779;52.360;31.026;2022-12-19T13:29:52;1049.7;;;-2.6;55.5
55858;BME280;41779;52.360;31.026;2022-12-19T13:34:34;1049.6;;;-2.7;55.5
55858;BME280;41779;52.360;31.026;2022-12-19T13:39:32;1049.6;;;-2.9;55.9
55858;BME280;41779;52.360;31.026;2022-12-19T13:44:51;1049.5;;;-3.1;56.2
55858;BME280;41779;52.360;31.026;2022-12-19T13:49:32;1049.6;;;-3.3;56.7
55858;BME280;41779;52.360;31.026;2022-12-19T13:54:34;1049.5;;;-3.3;56.9
55858;BME280;41779;52.360;31.026;2022-12-19T13:59:32;1049.6;;;-3.4;57.1
55858;BME280;41779;52.360;31.026;2022-12-19T14:04:49;1049.6;;;-3.5;57.2
55858;BME280;41779;52.360;31.026;2022-12-19T14:09:33;1049.6;;;-3.6;57.3
55858;BME280;41779;52.360;31.026;2022-12-19T14:14:49;1049.6;;;-3.7;57.6
55858;BME280;41779;52.360;31.026;2022-12-19T14:19:36;1049.6;;;-3.8;57.9
55858;BME280;41779;52.360;31.026;2022-12-19T14:24:51;1049.6;;;-3.8;58
55858;BME280;41779;52.360;31.026;2022-12-19T14:29:52;1049.6;;;-3.8;58
55858;BME280;41779;52.360;31.026;2022-12-19T14:34:31;1049.6;;;-3.9;58.1
55858;BME280;41779;52.360;31.026;2022-12-19T14:39:41;1049.7;;;-3.9;58.4
55858;BME280;41779;52.360;31.026;2022-12-19T14:44:42;1049.6;;;-4;58.8
55858;BME280;41779;52.360;31.026;2022-12-19T14:49:43;1049.6;;;-3.9;58.9
55858;BME280;41779;52.360;31.026;2022-12-19T14:55:11;1049.5;;;-3.9;58.9
55858;BME280;41779;52.360;31.026;2022-12-19T14:59:42;1049.5;;;-3.9;58.9
55858;BME280;41779;52.360;31.026;2022-12-19T15:04:44;1049.5;;;-3.9;58.6
55858;BME280;41779;52.360;31.026;2022-12-19T15:09:32;1049.4;;;-3.9;58.4
55858;BME280;41779;52.360;31.026;2022-12-19T15:14:43;1049.4;;;-3.9;58.3
55858;BME280;41779;52.360;31.026;2022-12-19T15:19:39;1049.3;;;-3.8;58.2
55858;BME280;41779;52.360;31.026;2022-12-19T15:24:31;1049.3;;;-3.8;58.2
55858;BME280;41779;52.360;31.026;2022-12-19T15:29:42;1049.3;;;-3.8;58.1
55858;BME280;41779;52.360;31.026;2022-12-19T15:34:31;1049.3;;;-3.9;57.9
55858;BME280;41779;52.360;31.026;2022-12-19T15:39:31;1049.4;;;-3.9;57.7
55858;BME280;41779;52.360;31.026;2022-12-19T15:44:40;1049.4;;;-4;57.4
55858;BME280;41779;52.360;31.026;2022-12-19T15:49:41;1049.5;;;-4.1;57.5
55858;BME280;41779;52.360;31.026;2022-12-19T15:55:06;1049.5;;;-4.2;57.5
55858;BME280;41779;52.360;31.026;2022-12-19T15:59:32;1049.4;;;-4.2;57.4
55858;BME280;41779;52.360;31.026;2022-12-19T16:04:51;1049.4;;;-4.2;57.3
55858;BME280;41779;52.360;31.026;2022-12-19T16:09:41;1049.3;;;-4.2;57.4
55858;BME280;41779;52.360;31.026;2022-12-19T16:14:31;1049.3;;;-4.3;57.5
55858;BME280;41779;52.360;31.026;2022-12-19T16:19:39;1049.3;;;-4.4;57.5
55858;BME280;41779;52.360;31.026;2022-12-19T16:24:54;1049.3;;;-4.4;57.6
55858;BME280;41779;52.360;31.026;2022-12-19T16:29:45;1049.3;;;-4.5;57.8
55858;BME280;41779;52.360;31.026;2022-12-19T16:34:31;1049.3;;;-4.6;57.8
55858;BME280;41779;52.360;31.026;2022-12-19T16:39:31;1049.2;;;-4.6;57.9
55858;BME280;41779;52.360;31.026;2022-12-19T16:44:55;1049.1;;;-4.6;57.7
55858;BME280;41779;52.360;31.026;2022-12-19T16:49:31;1049;;;-4.7;58
55858;BME280;41779;52.360;31.026;2022-12-19T16:54:31;1049;;;-4.7;58.2
55858;BME280;41779;52.360;31.026;2022-12-19T16:59:51;1048.9;;;-4.6;58.2
55858;BME280;41779;52.360;31.026;2022-12-19T17:04:45;1048.8;;;-4.6;58
55858;BME280;41779;52.360;31.026;2022-12-19T17:09:31;1048.8;;;-4.5;57.9
55858;BME280;41779;52.360;31.026;2022-12-19T17:14:39;1048.8;;;-4.5;57.8
55858;BME280;41779;52.360;31.026;2022-12-19T17:20:04;1048.7;;;-4.4;57.8
55858;BME280;41779;52.360;31.026;2022-12-19T17:24:31;1048.7;;;-4.4;57.7
55858;BME280;41779;52.360;31.026;2022-12-19T17:29:41;1048.7;;;-4.3;57.7
55858;BME280;41779;52.360;31.026;2022-12-19T17:34:31;1048.7;;;-4.3;57.6
55858;BME280;41779;52.360;31.026;2022-12-19T17:39:32;1048.6;;;-4.3;57.3
55858;BME280;41779;52.360;31.026;2022-12-19T17:44:41;1048.5;;;-4.3;57.1
55858;BME280;41779;52.360;31.026;2022-12-19T17:50:06;1048.4;;;-4.4;57.2
55858;BME280;41779;52.360;31.026;2022-12-19T17:54:53;1048.4;;;-4.4;57.3
55858;BME280;41779;52.360;31.026;2022-12-19T17:59:31;1048.3;;;-4.4;57.4
55858;BME280;41779;52.360;31.026;2022-12-19T18:04:41;1048.2;;;-4.4;57.3
55858;BME280;41779;52.360;31.026;2022-12-19T18:09:55;1048.2;;;-4.4;57.4
55858;BME280;41779;52.360;31.026;2022-12-19T18:14:49;1048.1;;;-4.4;57.5
55858;BME280;41779;52.360;31.026;2022-12-19T18:19:41;1048.1;;;-4.3;57.4
55858;BME280;41779;52.360;31.026;2022-12-19T18:24:31;1048.1;;;-4.3;57.4
55858;BME280;41779;52.360;31.026;2022-12-19T18:29:53;1048.1;;;-4.3;57.3
55858;BME280;41779;52.360;31.026;2022-12-19T18:34:41;1048.1;;;-4.4;57.3
55858;BME280;41779;52.360;31.026;2022-12-19T18:39:42;1048.1;;;-4.5;57.7
55858;BME280;41779;52.360;31.026;2022-12-19T18:45:16;1048;;;-4.5;57.4
55858;BME280;41779;52.360;31.026;2022-12-19T18:49:31;1048;;;-4.5;57.4
55858;BME280;41779;52.360;31.026;2022-12-19T18:54:31;1048;;;-4.5;57.4
55858;BME280;41779;52.360;31.026;2022-12-19T18:59:44;1048;;;-4.5;57.6
55858;BME280;41779;52.360;31.026;2022-12-19T19:04:31;1048;;;-4.5;57.6
55858;BME280;41779;52.360;31.026;2022-12-19T19:09:41;1047.9;;;-4.5;57.7
55858;BME280;41779;52.360;31.026;2022-12-19T19:14:53;1047.9;;;-4.5;57.7
55858;BME280;41779;52.360;31.026;2022-12-19T19:19:31;1047.9;;;-4.5;57.5
55858;BME280;41779;52.360;31.026;2022-12-19T19:24:51;1047.9;;;-4.5;57.5
55858;BME280;41779;52.360;31.026;2022-12-19T19:29:32;1047.8;;;-4.5;57.4
55858;BME280;41779;52.360;31.026;2022-12-19T19:34:32;1047.8;;;-4.5;57.4
55858;BME280;41779;52.360;31.026;2022-12-19T19:39:46;1047.8;;;-4.5;57.2
55858;BME280;41779;52.360;31.026;2022-12-19T19:44:55;1047.7;;;-4.5;57.1
55858;BME280;41779;52.360;31.026;2022-12-19T19:49:31;1047.7;;;-4.5;57
55858;BME280;41779;52.360;31.026;2022-12-19T19:54:49;1047.7;;;-4.6;57.1
55858;BME280;41779;52.360;31.026;2022-12-19T19:59:50;1047.7;;;-4.6;57.3
55858;BME280;41779;52.360;31.026;2022-12-19T20:04:32;1047.7;;;-4.6;57.3
55858;BME280;41779;52.360;31.026;2022-12-19T20:09:32;1047.6;;;-4.7;57.3
55858;BME280;41779;52.360;31.026;2022-12-19T20:14:41;1047.5;;;-4.7;57.4
55858;BME280;41779;52.360;31.026;2022-12-19T20:19:32;1047.5;;;-4.7;57.3
55858;BME280;41779;52.360;31.026;2022-12-19T20:24:44;1047.5;;;-4.7;57.3
55858;BME280;41779;52.360;31.026;2022-12-19T20:29:40;1047.6;;;-4.7;57.2
55858;BME280;41779;52.360;31.026;2022-12-19T20:34:32;1047.6;;;-4.7;57
55858;BME280;41779;52.360;31.026;2022-12-19T20:39:42;1047.6;;;-4.7;56.9
55858;BME280;41779;52.360;31.026;2022-12-19T20:44:42;1047.6;;;-4.8;56.8
55858;BME280;41779;52.360;31.026;2022-12-19T20:49:42;1047.7;;;-4.8;56.6
55858;BME280;41779;52.360;31.026;2022-12-19T20:54:54;1047.6;;;-4.8;56.6
55858;BME280;41779;52.360;31.026;2022-12-19T20:59:32;1047.6;;;-4.7;56.4
55858;BME280;41779;52.360;31.026;2022-12-19T21:04:32;1047.6;;;-4.7;56.3
55858;BME280;41779;52.360;31.026;2022-12-19T21:09:32;1047.5;;;-4.6;55.6
55858;BME280;41779;52.360;31.026;2022-12-19T21:14:44;1047.5;;;-4.6;55.6
55858;BME280;41779;52.360;31.026;2022-12-19T21:19:40;1047.4;;;-4.7;55.7
55858;BME280;41779;52.360;31.026;2022-12-19T21:24:32;1047.4;;;-4.7;55.6
55858;BME280;41779;52.360;31.026;2022-12-19T21:29:32;1047.3;;;-4.8;55.2
55858;BME280;41779;52.360;31.026;2022-12-19T21:34:32;1047.3;;;-4.8;54.9
55858;BME280;41779;52.360;31.026;2022-12-19T21:39:42;1047.3;;;-4.9;54.8
55858;BME280;41779;52.360;31.026;2022-12-19T21:44:52;1047.3;;;-5;54.9
55858;BME280;41779;52.360;31.026;2022-12-19T21:49:28;1047.2;;;-5;54.9
55858;BME280;41779;52.360;31.026;2022-12-19T21:55:00;1047.2;;;-5.1;55.1
55858;BME280;41779;52.360;31.026;2022-12-19T21:59:38;1047.1;;;-5.2;55.3
55858;BME280;41779;52.360;31.026;2022-12-19T22:04:28;1047.1;;;-5.2;55.5
55858;BME280;41779;52.360;31.026;2022-12-19T22:09:36;1047;;;-5.2;55.4
55858;BME280;41779;52.360;31.026;2022-12-19T22:14:38;1046.8;;;-5.3;55.4
55858;BME280;41779;52.360;31.026;2022-12-19T22:19:40;1046.8;;;-5.3;55.6
55858;BME280;41779;52.360;31.026;2022-12-19T22:24:28;1046.6;;;-5.4;55.6
55858;BME280;41779;52.360;31.026;2022-12-19T22:29:28;1046.5;;;-5.5;56
55858;BME280;41779;52.360;31.026;2022-12-19T22:34:28;1046.4;;;-5.6;56.3
55858;BME280;41779;52.360;31.026;2022-12-19T22:39:36;1046.3;;;-5.6;56.5
55858;BME280;41779;52.360;31.026;2022-12-19T22:44:38;1046.2;;;-5.7;57
55858;BME280;41779;52.360;31.026;2022-12-19T22:49:38;1046.1;;;-5.7;57.3
55858;BME280;41779;52.360;31.026;2022-12-19T22:54:40;1046.1;;;-5.7;57.3
55858;BME280;41779;52.360;31.026;2022-12-19T22:59:36;1046.1;;;-5.6;57.2
55858;BME280;41779;52.360;31.026;2022-12-19T23:04:52;1045.9;;;-5.6;57.2
55858;BME280;41779;52.360;31.026;2022-12-19T23:10:00;1045.8;;;-5.6;57.3
55858;BME280;41779;52.360;31.026;2022-12-19T23:14:36;1045.7;;;-5.5;57.2
55858;BME280;41779;52.360;31.026;2022-12-19T23:19:38;1045.6;;;-5.5;57.3
55858;BME280;41779;52.360;31.026;2022-12-19T23:24:28;1045.6;;;-5.5;57.4
55858;BME280;41779;52.360;31.026;2022-12-19T23:29:28;1045.6;;;-5.6;57.5
55858;BME280;41779;52.360;31.026;2022-12-19T23:34:38;1045.5;;;-5.6;57.6
55858;BME280;41779;52.360;31.026;2022-12-19T23:39:38;1045.2;;;-5.7;57.8
55858;BME280;41779;52.360;31.026;2022-12-19T23:44:28;1045.1;;;-5.7;57.8
